Time;durP1;ratioP1;P1;durP2;ratioP2;P2;SDS_P1;SDS_P2;PMS_P1;PMS_P2;Temp;Humidity;BMP_temperature;BMP_pressure;BME280_temperature;BME280_humidity;BME280_pressure;Samples;Min_cycle;Max_cycle;Signal;HPM_P1;HPM_P2
2023/01/19 00:01:24;;;;;;;41.13;19.90;;;-1.30;99.90;;;;;;5022054;28;20032;-74
2023/01/19 00:03:50;;;;;;;38.70;19.25;;;-1.40;99.90;;;;;;5008810;28;20496;-74
2023/01/19 00:06:16;;;;;;;40.40;19.85;;;-1.30;99.90;;;;;;5019611;28;20024;-74
2023/01/19 00:08:44;;;;;;;45.97;20.17;;;-1.40;99.90;;;;;;5024770;28;20092;-74
2023/01/19 00:11:11;;;;;;;40.08;20.15;;;-1.50;99.90;;;;;;5020837;28;20076;-74
2023/01/19 00:13:37;;;;;;;38.60;19.02;;;-1.40;99.90;;;;;;5006669;28;20026;-72
2023/01/19 00:16:03;;;;;;;47.50;20.75;;;-1.40;99.90;;;;;;5024416;28;20076;-72
2023/01/19 00:18:29;;;;;;;40.83;20.40;;;-1.40;99.90;;;;;;5019489;28;20033;-72
2023/01/19 00:20:54;;;;;;;41.97;19.80;;;-1.40;99.90;;;;;;5021108;28;20437;-73
2023/01/19 00:23:20;;;;;;;38.50;19.77;;;-1.40;99.90;;;;;;5026490;28;20505;-74
2023/01/19 00:25:47;;;;;;;36.28;19.35;;;-1.50;99.90;;;;;;5018545;28;20265;-71
2023/01/19 00:28:15;;;;;;;36.13;18.70;;;-1.50;99.90;;;;;;5016837;28;20030;-73
2023/01/19 00:30:42;;;;;;;39.80;19.63;;;-1.50;99.90;;;;;;5021929;28;20063;-74
2023/01/19 00:33:09;;;;;;;41.45;19.13;;;-1.50;99.90;;;;;;5025177;28;20103;-73
2023/01/19 00:35:35;;;;;;;36.45;18.88;;;-1.50;99.90;;;;;;5023045;28;20072;-74
2023/01/19 00:38:02;;;;;;;40.55;18.75;;;-1.50;99.90;;;;;;5018443;28;20508;-76
2023/01/19 00:40:27;;;;;;;37.53;18.73;;;-1.50;99.90;;;;;;5017396;28;20131;-73
2023/01/19 00:42:53;;;;;;;34.20;18.77;;;-1.50;99.90;;;;;;5021246;28;20053;-74
2023/01/19 00:45:21;;;;;;;38.85;18.70;;;-1.50;99.90;;;;;;5017875;28;20033;-74
2023/01/19 00:47:49;;;;;;;36.95;17.60;;;-1.50;99.90;;;;;;5019115;28;20033;-72
2023/01/19 00:50:15;;;;;;;36.20;18.45;;;-1.50;99.90;;;;;;5019510;28;20045;-74
2023/01/19 00:52:42;;;;;;;41.05;18.48;;;-1.50;99.90;;;;;;5021299;28;20737;-74
2023/01/19 00:55:10;;;;;;;34.40;18.48;;;-1.60;99.90;;;;;;5021758;28;20037;-74
2023/01/19 00:57:36;;;;;;;38.17;18.50;;;-1.60;99.90;;;;;;5026320;28;20029;-74
2023/01/19 01:00:05;;;;;;;41.10;19.05;;;-1.60;99.90;;;;;;5021222;28;20034;-73
2023/01/19 01:02:30;;;;;;;40.20;18.88;;;-1.60;99.90;;;;;;5019132;28;20025;-73
2023/01/19 01:04:56;;;;;;;38.22;19.17;;;-1.60;99.90;;;;;;5025766;28;20208;-73
2023/01/19 01:07:23;;;;;;;40.42;19.50;;;-1.70;99.90;;;;;;5003965;28;20065;-74
2023/01/19 01:09:49;;;;;;;39.80;18.55;;;-1.70;99.90;;;;;;5019750;28;20045;-75
2023/01/19 01:12:15;;;;;;;36.55;19.60;;;-1.70;99.90;;;;;;5007221;28;20013;-75
2023/01/19 01:14:40;;;;;;;39.25;20.83;;;-1.80;99.90;;;;;;5009901;28;20044;-72
2023/01/19 01:17:10;;;;;;;33.50;18.63;;;-1.70;99.90;;;;;;5021068;28;20488;-73
2023/01/19 01:19:36;;;;;;;38.78;18.35;;;-1.80;99.90;;;;;;5003862;28;20295;-76
2023/01/19 01:22:02;;;;;;;34.58;18.42;;;-1.80;99.90;;;;;;5019886;28;20061;-72
2023/01/19 01:24:28;;;;;;;39.78;18.83;;;-1.80;99.90;;;;;;5021266;28;20529;-71
2023/01/19 01:26:53;;;;;;;33.50;17.58;;;-1.80;99.90;;;;;;5012994;28;20026;-74
2023/01/19 01:29:19;;;;;;;37.13;18.38;;;-1.80;99.90;;;;;;5021583;28;20030;-71
2023/01/19 01:31:45;;;;;;;38.03;18.85;;;-1.80;99.90;;;;;;5025178;28;20112;-72
2023/01/19 01:34:10;;;;;;;39.37;20.43;;;-1.80;99.90;;;;;;5014728;28;20029;-71
2023/01/19 01:36:36;;;;;;;37.73;18.97;;;-2.00;99.90;;;;;;5017698;28;20671;-72
2023/01/19 01:39:02;;;;;;;45.55;21.35;;;-1.90;99.90;;;;;;5020457;28;20036;-71
2023/01/19 01:41:28;;;;;;;40.42;19.02;;;-2.00;99.90;;;;;;5021653;28;20803;-72
2023/01/19 01:44:00;;;;;;;38.50;19.27;;;-2.00;99.90;;;;;;5019856;28;20105;-71
2023/01/19 01:46:27;;;;;;;38.05;19.75;;;-2.00;99.90;;;;;;5023395;28;20022;-71
2023/01/19 01:49:08;;;;;;;38.65;18.45;;;-2.00;99.90;;;;;;5005617;28;20033;-71
2023/01/19 01:51:45;;;;;;;38.08;18.70;;;-1.90;99.90;;;;;;5023435;28;20025;-70
2023/01/19 01:54:11;;;;;;;;;;;-1.90;99.90;;;;;;5022168;28;20033;-74
2023/01/19 01:56:40;;;;;;;36.28;17.55;;;-1.90;99.90;;;;;;5017475;28;19916;-69
2023/01/19 01:59:11;;;;;;;37.70;18.80;;;-1.90;99.90;;;;;;5019960;28;20041;-71
2023/01/19 02:04:22;;;;;;;38.88;18.13;;;-2.00;99.90;;;;;;5024908;28;20071;-69
2023/01/19 02:15:05;;;;;;;31.77;17.50;;;-2.10;99.90;;;;;;5019421;28;20029;-72
2023/01/19 02:17:31;;;;;;;32.72;18.17;;;-2.10;99.90;;;;;;5026694;28;20029;-73
2023/01/19 02:19:56;;;;;;;40.83;18.92;;;-2.20;99.90;;;;;;5023345;28;20561;-71
2023/01/19 02:22:39;;;;;;;38.92;18.17;;;-2.20;99.90;;;;;;5028541;28;20522;-75
2023/01/19 02:25:05;;;;;;;37.70;18.63;;;-2.20;99.90;;;;;;5022136;28;20033;-74
2023/01/19 02:27:32;;;;;;;39.38;19.17;;;-2.20;99.90;;;;;;5025896;28;20175;-74
2023/01/19 02:29:59;;;;;;;34.90;18.80;;;-2.20;99.90;;;;;;5026073;28;20489;-74
2023/01/19 02:32:25;;;;;;;37.80;20.25;;;-2.00;99.90;;;;;;5019372;28;20041;-71
2023/01/19 02:34:51;;;;;;;37.58;19.92;;;-1.80;99.90;;;;;;5021622;28;20401;-71
2023/01/19 02:37:18;;;;;;;33.97;17.75;;;-1.70;99.90;;;;;;5027844;28;20095;-72
2023/01/19 02:39:49;;;;;;;38.78;17.90;;;-1.70;99.90;;;;;;5018075;28;20026;-71
2023/01/19 02:42:26;;;;;;;36.67;17.52;;;-1.80;99.90;;;;;;5017740;28;20017;-72
2023/01/19 02:44:53;;;;;;;36.13;18.40;;;-2.00;99.90;;;;;;5023042;28;20033;-73
2023/01/19 02:47:19;;;;;;;35.15;17.77;;;-2.00;99.90;;;;;;5028720;28;20030;-71
2023/01/19 02:49:56;;;;;;;36.67;17.75;;;-2.10;99.90;;;;;;5023209;28;20033;-75
2023/01/19 02:52:22;;;;;;;35.33;17.10;;;-2.10;99.90;;;;;;5019099;28;20040;-73
2023/01/19 02:54:57;;;;;;;31.08;16.73;;;-2.20;99.90;;;;;;5008709;28;20022;-73
2023/01/19 02:57:26;;;;;;;31.25;16.60;;;-2.20;99.90;;;;;;5024869;28;20031;-72
2023/01/19 03:00:08;;;;;;;38.40;17.60;;;-2.20;99.90;;;;;;5025315;28;20068;-72
2023/01/19 03:02:49;;;;;;;38.30;17.52;;;-2.30;99.90;;;;;;5016726;28;20025;-73
2023/01/19 03:05:42;;;;;;;35.92;17.33;;;-2.30;99.90;;;;;;5024138;28;20025;-73
2023/01/19 03:08:10;;;;;;;38.42;17.70;;;-2.30;99.90;;;;;;4998770;28;20052;-71
2023/01/19 03:10:49;;;;;;;32.88;17.60;;;-2.20;99.90;;;;;;5023771;28;20508;-70
2023/01/19 03:13:52;;;;;;;35.65;17.58;;;-2.10;99.90;;;;;;5019950;28;20036;-70
2023/01/19 03:16:39;;;;;;;36.38;17.20;;;-2.00;99.90;;;;;;5022851;28;20393;-72
2023/01/19 03:19:19;;;;;;;36.45;18.20;;;-2.00;99.90;;;;;;5026730;28;20033;-70
2023/01/19 03:21:48;;;;;;;36.17;17.85;;;-1.90;99.90;;;;;;5013289;28;20077;-75
2023/01/19 03:24:14;;;;;;;35.85;18.00;;;-1.90;99.90;;;;;;5010075;28;20465;-71
2023/01/19 03:26:51;;;;;;;38.45;18.15;;;-2.00;99.90;;;;;;5028323;28;20148;-74
2023/01/19 03:29:18;;;;;;;38.10;19.17;;;-2.10;99.90;;;;;;5021821;28;20018;-75
2023/01/19 03:31:48;;;;;;;36.22;17.50;;;-2.10;99.90;;;;;;5016055;28;20026;-75
2023/01/19 03:34:16;;;;;;;38.50;17.77;;;-2.20;99.90;;;;;;5027958;28;20551;-75
2023/01/19 03:36:59;;;;;;;34.53;17.48;;;-2.20;99.90;;;;;;5021590;28;20032;-75
2023/01/19 03:39:26;;;;;;;34.92;17.20;;;-2.30;99.90;;;;;;5018774;28;20037;-72
2023/01/19 03:41:56;;;;;;;31.38;16.77;;;-2.20;99.90;;;;;;5015792;28;20034;-71
2023/01/19 03:44:25;;;;;;;38.70;16.35;;;-2.20;99.90;;;;;;5026560;28;20196;-71
2023/01/19 03:46:51;;;;;;;35.97;16.48;;;-2.30;99.90;;;;;;5027353;28;20415;-72
2023/01/19 03:49:17;;;;;;;34.13;17.05;;;-2.30;99.90;;;;;;5021147;28;20483;-69
2023/01/19 03:51:43;;;;;;;36.65;18.10;;;-2.30;99.90;;;;;;5021081;28;20038;-72
2023/01/19 03:54:09;;;;;;;33.97;18.88;;;-2.30;99.90;;;;;;5018256;28;20028;-70
2023/01/19 03:56:35;;;;;;;32.38;17.52;;;-2.40;99.90;;;;;;5027128;28;20029;-71
2023/01/19 03:59:01;;;;;;;;;;;-2.30;99.90;;;;;;5023134;28;20052;-71
2023/01/19 04:01:27;;;;;;;37.80;17.70;;;-2.30;99.90;;;;;;5017969;28;20269;-73
2023/01/19 04:03:53;;;;;;;33.85;17.35;;;-2.40;99.90;;;;;;5025954;28;20492;-74
2023/01/19 04:06:20;;;;;;;36.75;18.42;;;-2.30;99.90;;;;;;5002959;28;20038;-75
2023/01/19 04:08:50;;;;;;;34.97;17.58;;;-2.20;99.90;;;;;;5026200;28;20056;-73
2023/01/19 04:11:16;;;;;;;38.47;17.85;;;-2.20;99.90;;;;;;5023584;28;20026;-71
2023/01/19 04:13:41;;;;;;;;;;;-2.10;99.90;;;;;;5023802;28;20428;-70
2023/01/19 04:16:09;;;;;;;36.58;17.13;;;-2.20;99.90;;;;;;5015360;28;19910;-70
2023/01/19 04:18:35;;;;;;;36.83;17.92;;;-2.10;99.90;;;;;;5025149;28;20038;-70
2023/01/19 04:21:03;;;;;;;32.05;17.10;;;-2.10;99.90;;;;;;5025401;28;20025;-70
2023/01/19 04:23:29;;;;;;;40.00;18.25;;;-2.10;99.90;;;;;;5018480;28;20135;-73
2023/01/19 04:25:58;;;;;;;38.65;17.38;;;-1.90;99.90;;;;;;5025127;28;20018;-74
2023/01/19 04:28:25;;;;;;;45.33;18.50;;;-1.90;99.90;;;;;;5009727;28;20389;-70
2023/01/19 04:30:53;;;;;;;;;;;-1.90;99.90;;;;;;5021936;28;20140;-75
2023/01/19 04:33:20;;;;;;;38.38;17.85;;;-1.90;99.90;;;;;;5024707;28;20384;-76
2023/01/19 04:35:46;;;;;;;35.80;18.02;;;-1.80;99.90;;;;;;5026381;28;20041;-74
2023/01/19 04:38:12;;;;;;;30.85;16.95;;;-1.70;99.90;;;;;;5004594;28;20524;-76
2023/01/19 04:40:38;;;;;;;37.88;16.90;;;-1.60;99.90;;;;;;5015853;28;20037;-77
2023/01/19 04:43:03;;;;;;;34.70;16.77;;;-1.60;99.90;;;;;;5019218;28;20033;-71
2023/01/19 04:45:29;;;;;;;42.33;17.48;;;-1.50;99.90;;;;;;5022021;28;20240;-75
2023/01/19 04:47:55;;;;;;;37.25;16.90;;;-1.40;99.90;;;;;;5027281;28;20554;-75
2023/01/19 04:50:20;;;;;;;36.20;17.80;;;-1.30;99.90;;;;;;5019280;28;20026;-76
2023/01/19 04:52:46;;;;;;;32.90;16.50;;;-1.20;99.90;;;;;;5011324;28;20273;-75
2023/01/19 04:55:12;;;;;;;38.03;17.35;;;-1.20;99.90;;;;;;5024258;28;20021;-73
2023/01/19 04:57:38;;;;;;;33.90;16.27;;;-1.30;99.90;;;;;;5023797;28;20106;-71
2023/01/19 05:00:05;;;;;;;31.80;15.63;;;-1.30;99.90;;;;;;5021078;28;20044;-72
2023/01/19 05:02:31;;;;;;;32.50;16.45;;;-1.10;99.90;;;;;;5019471;28;20029;-74
2023/01/19 05:04:57;;;;;;;30.67;15.50;;;-1.00;99.90;;;;;;5024415;28;20038;-71
2023/01/19 05:07:22;;;;;;;31.27;16.77;;;-0.90;99.90;;;;;;5020071;28;20030;-72
2023/01/19 05:09:48;;;;;;;39.90;15.90;;;-0.80;99.90;;;;;;5023268;28;20287;-72
2023/01/19 05:12:14;;;;;;;29.92;15.30;;;-0.90;99.90;;;;;;5023265;28;20493;-74
2023/01/19 05:14:39;;;;;;;33.13;15.35;;;-0.80;99.90;;;;;;5025517;28;20048;-74
2023/01/19 05:17:05;;;;;;;31.77;15.05;;;-0.80;99.90;;;;;;5025235;28;20026;-72
2023/01/19 05:19:31;;;;;;;31.08;15.73;;;-0.90;99.90;;;;;;5017396;28;20417;-72
2023/01/19 05:21:56;;;;;;;31.50;15.90;;;-0.80;99.90;;;;;;5024872;28;20477;-72
2023/01/19 05:24:22;;;;;;;38.92;16.13;;;-0.80;99.90;;;;;;5023633;28;20041;-74
2023/01/19 05:26:47;;;;;;;32.08;16.13;;;-1.00;99.90;;;;;;5016778;28;20021;-73
2023/01/19 05:29:13;;;;;;;32.80;16.37;;;-0.80;99.90;;;;;;5018225;28;20022;-74
2023/01/19 05:31:38;;;;;;;32.38;16.23;;;-0.80;99.90;;;;;;5024479;28;20385;-73
2023/01/19 05:34:04;;;;;;;29.88;16.25;;;-0.70;99.90;;;;;;5003349;28;20026;-75
2023/01/19 05:36:30;;;;;;;31.88;16.67;;;-0.60;99.90;;;;;;5019698;28;20017;-72
2023/01/19 05:38:56;;;;;;;28.13;15.77;;;-0.60;99.90;;;;;;5023814;28;20403;-73
2023/01/19 05:41:21;;;;;;;30.20;16.23;;;-0.60;99.90;;;;;;5021357;28;20037;-74
2023/01/19 05:43:47;;;;;;;34.05;15.40;;;-0.60;99.90;;;;;;5019756;28;20066;-75
2023/01/19 05:46:13;;;;;;;30.80;15.33;;;-0.60;99.90;;;;;;5020782;28;20455;-75
2023/01/19 05:48:38;;;;;;;29.80;15.70;;;-0.50;99.90;;;;;;5021997;28;20363;-75
2023/01/19 05:51:05;;;;;;;27.50;15.30;;;-0.50;99.90;;;;;;5017096;28;20081;-71
2023/01/19 05:53:31;;;;;;;30.35;15.68;;;-0.50;99.90;;;;;;5026274;28;20455;-71
2023/01/19 05:56:05;;;;;;;35.70;15.98;;;-0.40;99.90;;;;;;5024427;28;20109;-74
2023/01/19 05:58:33;;;;;;;30.90;16.02;;;-0.40;99.90;;;;;;5018978;28;20038;-73
2023/01/19 06:01:04;;;;;;;31.55;16.98;;;-0.40;99.90;;;;;;5025180;28;20104;-71
2023/01/19 06:03:30;;;;;;;33.30;17.52;;;-0.40;99.90;;;;;;5024060;28;20063;-70
2023/01/19 06:05:56;;;;;;;;;;;-0.50;99.90;;;;;;5024551;28;20056;-74
2023/01/19 06:08:22;;;;;;;29.27;15.50;;;-0.60;99.90;;;;;;5027233;28;20403;-71
2023/01/19 06:10:47;;;;;;;34.50;17.17;;;-0.50;99.90;;;;;;5024668;28;20021;-73
2023/01/19 06:13:13;;;;;;;33.10;16.10;;;-0.60;99.90;;;;;;5010279;28;20629;-70
2023/01/19 06:15:39;;;;;;;41.35;18.13;;;-0.80;99.90;;;;;;5024738;28;20036;-74
2023/01/19 06:18:05;;;;;;;34.88;16.80;;;-0.90;99.90;;;;;;5026324;28;20842;-70
2023/01/19 06:20:30;;;;;;;39.08;18.95;;;-1.00;99.90;;;;;;5027677;28;20026;-72
2023/01/19 06:22:56;;;;;;;37.57;18.40;;;-1.00;99.90;;;;;;5026263;28;20022;-72
2023/01/19 06:25:22;;;;;;;36.80;19.17;;;-0.90;99.90;;;;;;5019317;28;20033;-72
2023/01/19 06:27:48;;;;;;;35.65;19.33;;;-1.00;99.90;;;;;;5007375;28;20478;-71
2023/01/19 06:30:13;;;;;;;38.80;20.13;;;-1.00;99.90;;;;;;5022975;28;20097;-72
2023/01/19 06:32:39;;;;;;;35.20;18.27;;;-1.10;99.90;;;;;;5025720;28;20029;-70
2023/01/19 06:35:06;;;;;;;33.55;17.45;;;-1.10;99.90;;;;;;5025309;28;20060;-70
2023/01/19 06:37:33;;;;;;;35.90;17.63;;;-1.20;99.90;;;;;;5006121;28;20829;-72
2023/01/19 06:39:58;;;;;;;;;;;-1.20;99.90;;;;;;5028040;28;20043;-75
2023/01/19 06:42:24;;;;;;;33.42;17.63;;;-1.30;99.90;;;;;;5018831;28;20289;-73
2023/01/19 06:44:49;;;;;;;36.20;19.43;;;-1.40;99.90;;;;;;5027491;28;20033;-75
2023/01/19 06:47:15;;;;;;;36.50;20.80;;;-1.50;99.90;;;;;;5024147;28;20571;-71
2023/01/19 06:49:41;;;;;;;37.03;20.17;;;-1.40;99.90;;;;;;5028462;28;20087;-76
2023/01/19 06:52:13;;;;;;;42.28;20.67;;;-1.50;99.90;;;;;;5020356;28;20029;-75
2023/01/19 06:54:38;;;;;;;42.78;20.75;;;-1.50;99.90;;;;;;5007500;28;20029;-76
2023/01/19 06:57:04;;;;;;;45.88;20.85;;;-1.60;99.90;;;;;;5022196;28;20057;-76
2023/01/19 06:59:30;;;;;;;44.72;20.13;;;-1.60;99.90;;;;;;5013487;28;20203;-72
2023/01/19 07:01:55;;;;;;;42.90;20.73;;;-1.60;99.90;;;;;;5005114;28;20033;-70
2023/01/19 07:04:22;;;;;;;38.53;20.17;;;-1.50;99.90;;;;;;5010703;28;20041;-71
2023/01/19 07:06:47;;;;;;;37.92;19.65;;;-1.40;99.90;;;;;;5023836;28;20033;-71
2023/01/19 07:09:13;;;;;;;48.88;26.67;;;-1.20;99.90;;;;;;5027650;28;20087;-71
2023/01/19 07:11:39;;;;;;;51.90;29.00;;;-1.20;99.90;;;;;;5021355;28;20513;-73
2023/01/19 07:14:04;;;;;;;48.60;25.70;;;-1.20;99.90;;;;;;5027213;28;20121;-73
2023/01/19 07:16:30;;;;;;;40.83;22.15;;;-1.20;99.90;;;;;;5019779;28;20033;-78
2023/01/19 07:18:56;;;;;;;35.88;20.67;;;-1.20;99.90;;;;;;5022154;28;20116;-78
2023/01/19 07:21:22;;;;;;;37.92;20.95;;;-1.20;99.90;;;;;;5023994;28;20075;-73
2023/01/19 07:23:49;;;;;;;42.13;20.92;;;-1.20;99.90;;;;;;5027947;28;20045;-73
2023/01/19 07:26:17;;;;;;;45.25;20.48;;;-1.20;99.90;;;;;;5019891;28;20099;-72
2023/01/19 07:28:43;;;;;;;41.08;21.23;;;-1.10;99.90;;;;;;5020029;28;20029;-74
2023/01/19 07:31:09;;;;;;;44.60;21.27;;;-1.00;99.90;;;;;;5018251;28;20421;-71
2023/01/19 07:33:35;;;;;;;62.95;27.05;;;-1.00;99.90;;;;;;5018295;28;20034;-75
2023/01/19 07:36:00;;;;;;;54.92;26.05;;;-0.90;99.90;;;;;;5014989;28;20037;-74
2023/01/19 07:38:26;;;;;;;46.95;22.17;;;-0.80;99.90;;;;;;5001890;28;20825;-75
2023/01/19 07:41:01;;;;;;;51.67;24.13;;;-0.70;99.90;;;;;;5018314;28;20126;-72
2023/01/19 07:43:27;;;;;;;49.15;23.35;;;-0.70;99.90;;;;;;5017477;28;20037;-75
2023/01/19 07:45:57;;;;;;;49.03;23.25;;;-0.60;99.90;;;;;;5019899;28;20041;-72
2023/01/19 07:48:23;;;;;;;43.97;21.38;;;-0.60;99.90;;;;;;5016150;28;20032;-75
2023/01/19 07:50:48;;;;;;;54.10;22.70;;;-0.50;99.90;;;;;;5015885;28;20116;-75
2023/01/19 07:53:14;;;;;;;44.17;21.87;;;-0.50;99.90;;;;;;5023864;28;20036;-76
2023/01/19 07:55:39;;;;;;;40.22;21.00;;;-0.70;99.90;;;;;;5018751;28;20667;-73
2023/01/19 07:58:06;;;;;;;40.90;20.43;;;-0.50;99.90;;;;;;5016885;28;20046;-73
2023/01/19 08:00:33;;;;;;;39.58;19.52;;;-0.40;99.90;;;;;;5017416;28;20278;-71
2023/01/19 08:03:00;;;;;;;50.13;22.00;;;-0.50;99.90;;;;;;5019141;28;20091;-73
2023/01/19 08:05:28;;;;;;;49.58;22.67;;;-0.50;99.90;;;;;;5021532;28;20131;-75
2023/01/19 08:07:56;;;;;;;63.78;32.10;;;-0.40;99.90;;;;;;5016284;28;20053;-70
2023/01/19 08:10:25;;;;;;;53.67;27.88;;;-0.40;99.90;;;;;;5018056;28;20148;-70
2023/01/19 08:12:52;;;;;;;72.88;34.22;;;-0.20;99.90;;;;;;5018048;28;20018;-70
2023/01/19 08:15:18;;;;;;;47.33;26.08;;;0.00;99.90;;;;;;5013879;28;20030;-70
2023/01/19 08:17:44;;;;;;;49.88;25.83;;;0.10;99.90;;;;;;5017720;28;20045;-72
2023/01/19 08:20:11;;;;;;;46.47;23.40;;;0.30;99.90;;;;;;5021896;28;20428;-76
2023/01/19 08:22:36;;;;;;;42.20;23.80;;;0.20;99.90;;;;;;5025669;28;20096;-70
2023/01/19 08:25:02;;;;;;;46.38;23.63;;;0.70;99.90;;;;;;5023161;28;20128;-72
2023/01/19 08:27:29;;;;;;;47.10;22.88;;;1.00;99.90;;;;;;5021501;28;20104;-75
2023/01/19 08:29:55;;;;;;;46.13;23.17;;;1.00;99.90;;;;;;5020626;28;20100;-73
2023/01/19 08:32:20;;;;;;;46.67;24.27;;;1.00;99.90;;;;;;5020233;28;20018;-72
2023/01/19 08:34:46;;;;;;;41.87;23.40;;;1.00;99.90;;;;;;5027585;28;20040;-73
2023/01/19 08:37:12;;;;;;;40.57;23.50;;;1.00;99.90;;;;;;5019070;28;20524;-72
2023/01/19 08:39:37;;;;;;;49.10;23.20;;;1.00;99.90;;;;;;5002378;28;20309;-71
2023/01/19 08:42:03;;;;;;;52.00;21.90;;;0.70;99.90;;;;;;5020781;28;20295;-73
2023/01/19 08:44:29;;;;;;;53.15;22.35;;;0.80;99.90;;;;;;5016954;28;20161;-76
2023/01/19 08:46:55;;;;;;;43.93;22.37;;;1.00;99.90;;;;;;5023562;28;20061;-72
2023/01/19 08:49:20;;;;;;;37.88;21.60;;;1.10;99.90;;;;;;5017012;28;20022;-71
2023/01/19 08:51:46;;;;;;;47.40;22.30;;;1.10;99.90;;;;;;5021740;28;20041;-73
2023/01/19 08:54:12;;;;;;;39.03;21.03;;;1.20;99.90;;;;;;5017416;28;20045;-73
2023/01/19 08:56:37;;;;;;;37.40;20.30;;;1.20;99.90;;;;;;5021854;28;20807;-78
2023/01/19 08:59:03;;;;;;;47.93;21.97;;;1.20;99.90;;;;;;5019860;28;20045;-79
2023/01/19 09:01:29;;;;;;;40.63;20.30;;;1.20;99.90;;;;;;5016897;28;20692;-79
2023/01/19 09:03:55;;;;;;;39.72;20.60;;;1.30;99.90;;;;;;5022319;28;20296;-79
2023/01/19 09:06:20;;;;;;;38.77;20.93;;;1.30;99.90;;;;;;5022568;28;20026;-77
2023/01/19 09:08:47;;;;;;;51.30;22.58;;;1.30;99.90;;;;;;5024060;28;20029;-77
2023/01/19 09:11:16;;;;;;;43.25;21.85;;;1.40;99.90;;;;;;5017521;28;20104;-78
2023/01/19 09:13:41;;;;;;;54.58;28.10;;;1.40;99.90;;;;;;5020896;28;20044;-75
2023/01/19 09:16:08;;;;;;;45.50;25.33;;;1.40;99.90;;;;;;5007845;28;20030;-74
2023/01/19 09:18:34;;;;;;;50.00;22.48;;;1.40;99.90;;;;;;5024591;28;20288;-76
2023/01/19 09:21:00;;;;;;;42.05;20.52;;;1.30;99.90;;;;;;5020568;28;20488;-79
2023/01/19 09:23:27;;;;;;;42.85;22.40;;;1.40;99.90;;;;;;5001685;28;20040;-81
2023/01/19 09:25:58;;;;;;;48.72;23.65;;;1.30;99.90;;;;;;5027071;28;20064;-74
2023/01/19 09:28:24;;;;;;;45.30;21.92;;;1.40;99.90;;;;;;5024460;28;20029;-78
2023/01/19 09:30:50;;;;;;;40.17;22.00;;;1.50;99.90;;;;;;5009215;28;20044;-80
2023/01/19 09:33:17;;;;;;;42.85;21.55;;;1.50;99.90;;;;;;5026555;28;20025;-73
2023/01/19 09:35:44;;;;;;;52.22;24.73;;;1.70;99.90;;;;;;5031147;28;20807;-74
2023/01/19 09:38:11;;;;;;;57.08;26.80;;;1.70;99.90;;;;;;5010667;28;20444;-79
2023/01/19 09:40:47;;;;;;;46.80;23.63;;;1.70;99.90;;;;;;5021042;28;20033;-74
2023/01/19 09:43:38;;;;;;;66.65;37.10;;;1.90;99.90;;;;;;5024670;28;20033;-76
2023/01/19 09:46:23;;;;;;;52.60;24.80;;;2.10;99.90;;;;;;5022000;28;20076;-74
2023/01/19 09:49:03;;;;;;;47.67;22.80;;;2.20;99.90;;;;;;5018235;28;20030;-74
2023/01/19 09:51:38;;;;;;;38.90;21.23;;;2.10;99.90;;;;;;5019266;28;20029;-77
2023/01/19 09:54:03;;;;;;;37.28;21.45;;;2.10;99.90;;;;;;5024554;28;20103;-75
2023/01/19 09:56:31;;;;;;;40.50;20.30;;;2.10;99.90;;;;;;5023004;28;20099;-72
2023/01/19 09:58:57;;;;;;;38.75;19.90;;;2.30;99.90;;;;;;5025986;28;20168;-78
2023/01/19 10:01:33;;;;;;;32.88;19.73;;;2.30;99.90;;;;;;5026522;28;20385;-75
2023/01/19 10:04:17;;;;;;;38.42;19.75;;;2.10;99.90;;;;;;5025343;28;20033;-78
2023/01/19 10:06:43;;;;;;;36.00;17.83;;;2.20;99.90;;;;;;5024747;28;20025;-75
2023/01/19 10:09:21;;;;;;;35.10;19.25;;;2.20;99.90;;;;;;5028581;28;20875;-77
2023/01/19 10:11:58;;;;;;;40.80;20.25;;;2.10;99.90;;;;;;5022999;28;20026;-74
2023/01/19 10:14:35;;;;;;;39.75;19.23;;;2.20;99.90;;;;;;5027066;28;20501;-76
2023/01/19 10:17:20;;;;;;;43.88;21.45;;;2.20;99.90;;;;;;5027262;28;20055;-80
2023/01/19 10:19:52;;;;;;;36.80;19.27;;;2.30;99.90;;;;;;5025838;28;20033;-76
2023/01/19 10:22:27;;;;;;;43.92;21.80;;;2.30;99.90;;;;;;5023020;28;20104;-74
2023/01/19 10:24:59;;;;;;;55.30;26.45;;;2.40;99.90;;;;;;5025189;28;20029;-76
2023/01/19 10:27:30;;;;;;;57.67;27.95;;;2.40;99.90;;;;;;5021238;28;20030;-71
2023/01/19 10:29:56;;;;;;;46.42;24.17;;;2.40;99.90;;;;;;5017894;28;20036;-70
2023/01/19 10:32:29;;;;;;;36.25;19.88;;;2.50;99.90;;;;;;5026375;28;20493;-70
2023/01/19 10:34:57;;;;;;;33.40;19.55;;;2.30;99.90;;;;;;5026787;28;20037;-70
2023/01/19 10:37:40;;;;;;;35.20;20.20;;;2.30;99.90;;;;;;5025471;28;20018;-70
2023/01/19 10:40:09;;;;;;;36.90;17.75;;;2.40;99.90;;;;;;5019665;28;20073;-73
2023/01/19 10:42:36;;;;;;;40.72;20.48;;;2.40;99.90;;;;;;5028627;28;20029;-70
2023/01/19 10:45:02;;;;;;;39.67;21.13;;;2.50;99.90;;;;;;5028979;28;20029;-71
2023/01/19 10:47:35;;;;;;;39.33;20.73;;;2.60;99.90;;;;;;5021462;28;20501;-70
2023/01/19 10:50:29;;;;;;;36.83;19.77;;;2.80;99.90;;;;;;5026737;28;20040;-74
2023/01/19 10:53:04;;;;;;;38.88;20.58;;;2.90;99.90;;;;;;5017451;28;20790;-71
2023/01/19 10:55:36;;;;;;;33.35;18.40;;;3.00;99.90;;;;;;5016585;28;20080;-70
2023/01/19 10:58:03;;;;;;;33.50;16.23;;;3.10;99.90;;;;;;5027266;28;20096;-72
2023/01/19 11:00:40;;;;;;;29.52;16.08;;;3.00;99.90;;;;;;5005549;28;20029;-71
2023/01/19 11:03:27;;;;;;;30.75;16.23;;;2.90;99.90;;;;;;5018225;28;20044;-69
2023/01/19 11:05:52;;;;;;;28.35;16.13;;;2.90;99.90;;;;;;5022554;28;20489;-69
2023/01/19 11:08:29;;;;;;;29.97;14.73;;;2.90;99.90;;;;;;5023418;28;20040;-71
2023/01/19 11:11:02;;;;;;;26.65;14.23;;;2.80;99.90;;;;;;5024241;28;20702;-69
2023/01/19 11:13:28;;;;;;;29.70;16.95;;;2.90;99.90;;;;;;5025730;28;20034;-75
2023/01/19 11:15:57;;;;;;;39.28;19.30;;;2.80;99.90;;;;;;5023400;28;20033;-77
2023/01/19 11:18:30;;;;;;;28.50;17.50;;;2.80;99.90;;;;;;5022860;28;20045;-76
2023/01/19 11:21:02;;;;;;;33.35;17.35;;;2.90;99.90;;;;;;5024560;28;20400;-77
2023/01/19 11:23:50;;;;;;;32.90;17.90;;;2.90;99.90;;;;;;5014559;28;20034;-76
2023/01/19 11:26:25;;;;;;;;;;;3.00;99.90;;;;;;5016282;28;20037;-78
2023/01/19 11:28:54;;;;;;;36.85;17.48;;;3.00;99.90;;;;;;5026598;28;20316;-69
2023/01/19 11:31:30;;;;;;;31.08;17.10;;;3.10;99.90;;;;;;5024355;28;20502;-68
2023/01/19 11:34:25;;;;;;;31.17;17.83;;;3.00;99.90;;;;;;5021317;28;20463;-70
2023/01/19 11:36:59;;;;;;;30.05;18.67;;;3.00;99.90;;;;;;5024104;28;20018;-68
2023/01/19 11:39:27;;;;;;;37.15;18.55;;;3.00;99.90;;;;;;5023518;28;20037;-74
2023/01/19 11:42:00;;;;;;;37.47;20.42;;;3.10;99.90;;;;;;5019347;28;20068;-72
2023/01/19 11:44:32;;;;;;;34.03;17.98;;;3.10;99.90;;;;;;5020597;28;20117;-70
2023/01/19 11:47:01;;;;;;;37.10;21.15;;;3.10;99.90;;;;;;5017819;28;20128;-73
2023/01/19 11:49:32;;;;;;;35.58;20.90;;;3.30;99.90;;;;;;5024278;28;20028;-69
2023/01/19 11:52:20;;;;;;;32.65;20.05;;;3.50;99.90;;;;;;5020948;28;20061;-72
2023/01/19 11:55:10;;;;;;;26.17;16.13;;;3.80;99.90;;;;;;5002148;28;20032;-72
2023/01/19 11:57:36;;;;;;;33.95;18.65;;;3.90;99.90;;;;;;5019451;28;20121;-72
2023/01/19 12:00:12;;;;;;;27.70;15.55;;;4.00;99.90;;;;;;5009923;28;20029;-68
2023/01/19 12:02:44;;;;;;;24.85;13.95;;;3.70;99.90;;;;;;5003730;28;20037;-70
2023/01/19 12:05:14;;;;;;;25.60;14.77;;;3.40;99.90;;;;;;5017192;28;20085;-71
2023/01/19 12:07:42;;;;;;;27.17;16.13;;;2.80;99.90;;;;;;5024124;28;20385;-68
2023/01/19 12:10:30;;;;;;;28.05;15.73;;;2.90;99.90;;;;;;5017664;28;20046;-70
2023/01/19 12:12:56;;;;;;;26.45;15.48;;;2.90;99.90;;;;;;5015530;28;20044;-69
2023/01/19 12:15:43;;;;;;;26.95;16.23;;;2.80;99.90;;;;;;5017125;28;20502;-68
2023/01/19 12:18:22;;;;;;;25.08;14.65;;;3.10;99.90;;;;;;5023850;28;20041;-72
2023/01/19 12:20:53;;;;;;;25.63;14.45;;;3.20;99.90;;;;;;5022526;28;20387;-70
2023/01/19 12:23:35;;;;;;;29.25;14.95;;;3.30;99.90;;;;;;5021745;28;20033;-74
2023/01/19 12:26:07;;;;;;;27.77;15.02;;;3.20;99.90;;;;;;5019101;28;20139;-71
2023/01/19 12:28:38;;;;;;;27.85;15.73;;;3.00;99.90;;;;;;5022225;28;20123;-73
2023/01/19 12:31:04;;;;;;;28.20;15.25;;;3.30;99.90;;;;;;5017965;28;20485;-72
2023/01/19 12:33:37;;;;;;;24.88;14.75;;;3.40;99.90;;;;;;5015829;28;20040;-75
2023/01/19 12:36:15;;;;;;;23.83;14.73;;;3.50;99.90;;;;;;5017873;28;20036;-67
2023/01/19 12:38:59;;;;;;;26.42;15.30;;;3.50;99.90;;;;;;5015855;28;20041;-71
2023/01/19 12:41:30;;;;;;;22.75;14.38;;;3.60;99.90;;;;;;5015346;28;20074;-68
2023/01/19 12:44:08;;;;;;;25.25;15.02;;;3.40;99.90;;;;;;5019646;28;20033;-69
2023/01/19 12:46:34;;;;;;;29.98;15.10;;;3.20;99.90;;;;;;5018529;28;20075;-68
2023/01/19 12:49:19;;;;;;;25.90;15.00;;;3.40;99.90;;;;;;5023121;28;20044;-69
2023/01/19 12:51:46;;;;;;;26.85;15.60;;;3.60;99.90;;;;;;5021526;28;20025;-68
2023/01/19 12:54:40;;;;;;;30.33;16.27;;;3.50;99.90;;;;;;5022725;28;20088;-67